Time;durP1;ratioP1;P1;durP2;ratioP2;P2;SDS_P1;SDS_P2;PMS_P1;PMS_P2;Temp;Humidity;BMP_temperature;BMP_pressure;BME280_temperature;BME280_humidity;BME280_pressure;Samples;Min_cycle;Max_cycle;Signal;HPM_P1;HPM_P2
2021/12/07 00:01:49;;;;;;;2.95;1.20;;;;;;;1.48;100.00;98848.13;4994273;28;20523;-74
2021/12/07 00:04:15;;;;;;;3.65;1.60;;;;;;;1.48;100.00;98836.06;4994287;28;20480;-74
2021/12/07 00:06:40;;;;;;;3.85;1.60;;;;;;;1.41;100.00;98838.75;4995701;28;20027;-74
2021/12/07 00:09:12;;;;;;;2.30;1.20;;;;;;;1.38;100.00;98837.09;4995312;28;20030;-74
2021/12/07 00:11:38;;;;;;;4.10;1.73;;;;;;;1.36;100.00;98841.41;4995572;28;20109;-74
2021/12/07 00:14:11;;;;;;;3.05;1.10;;;;;;;1.43;100.00;98845.59;4995165;28;20099;-74
2021/12/07 00:16:37;;;;;;;3.55;1.25;;;;;;;1.38;100.00;98838.81;4994619;28;20054;-74
2021/12/07 00:19:03;;;;;;;3.05;1.65;;;;;;;1.39;100.00;98843.09;4995122;28;20433;-74
2021/12/07 00:21:29;;;;;;;;;;;;;;;1.37;100.00;98850.84;4995428;28;20039;-75
2021/12/07 00:23:54;;;;;;;3.22;1.10;;;;;;;1.28;100.00;98856.13;4995468;28;19929;-74
2021/12/07 00:26:20;;;;;;;3.80;1.40;;;;;;;1.28;100.00;98854.41;4995230;28;20042;-75
2021/12/07 00:28:47;;;;;;;4.47;1.55;;;;;;;1.34;100.00;98856.91;4995033;28;20027;-73
2021/12/07 00:31:21;;;;;;;2.88;1.15;;;;;;;1.29;100.00;98847.53;4994929;28;20113;-73
2021/12/07 00:33:54;;;;;;;4.80;1.42;;;;;;;1.28;100.00;98856.13;4994826;28;20026;-73
2021/12/07 00:36:19;;;;;;;3.50;1.35;;;;;;;1.29;100.00;98856.09;4994910;28;20030;-73
2021/12/07 00:38:45;;;;;;;3.72;1.45;;;;;;;1.33;100.00;98852.63;4994948;28;20041;-75
2021/12/07 00:41:11;;;;;;;2.58;1.25;;;;;;;1.25;100.00;98851.03;4994926;28;20041;-74
2021/12/07 00:43:36;;;;;;;5.03;1.92;;;;;;;1.21;100.00;98864.81;4994777;28;20386;-74
2021/12/07 00:46:03;;;;;;;4.20;1.30;;;;;;;1.14;100.00;98868.34;4994537;28;20037;-74
2021/12/07 00:48:29;;;;;;;;;;;;;;;1.21;100.00;98870.81;4995308;28;20030;-74
2021/12/07 00:50:56;;;;;;;4.03;1.42;;;;;;;1.20;100.00;98881.16;4994845;28;19913;-74
2021/12/07 00:53:23;;;;;;;5.22;2.03;;;;;;;1.14;100.00;98879.50;5009780;28;20031;-74
2021/12/07 00:55:50;;;;;;;3.97;1.70;;;;;;;1.17;100.00;98883.78;4995009;28;20096;-74
2021/12/07 00:58:20;;;;;;;4.90;1.92;;;;;;;1.12;100.00;98883.81;4994450;28;20073;-74
2021/12/07 01:00:49;;;;;;;4.47;1.60;;;;;;;1.11;100.00;98882.16;4994387;28;20457;-74
2021/12/07 01:03:15;;;;;;;3.42;1.48;;;;;;;1.11;100.00;98897.63;4994385;28;20455;-74
2021/12/07 01:05:47;;;;;;;4.30;1.58;;;;;;;1.10;100.00;98901.06;4994194;28;20035;-75
2021/12/07 01:24:51;;;;;;;5.55;2.83;;;;;;;0.93;100.00;98927.03;4994191;28;20411;-74
2021/12/07 01:27:19;;;;;;;7.85;2.95;;;;;;;0.89;100.00;98933.09;4992711;28;20038;-74
2021/12/07 01:29:47;;;;;;;10.85;3.03;;;;;;;0.83;100.00;98932.28;4994115;28;20081;-74
2021/12/07 01:37:33;;;;;;;6.45;2.80;;;;;;;0.57;100.00;98946.31;4994171;28;20474;-75
2021/12/07 01:43:06;;;;;;;7.35;3.10;;;;;;;0.38;100.00;98964.53;4994178;28;20085;-75
2021/12/07 02:01:54;;;;;;;6.53;2.90;;;;;;;0.20;100.00;98989.56;4993971;28;20041;-74
2021/12/07 02:04:20;;;;;;;8.02;2.88;;;;;;;0.21;100.00;98990.41;4993457;28;20026;-75
2021/12/07 02:06:45;;;;;;;6.40;2.97;;;;;;;0.22;100.00;98995.56;4993752;28;20120;-74
2021/12/07 02:09:12;;;;;;;6.28;3.08;;;;;;;0.14;100.00;99001.63;4993743;28;20026;-75
2021/12/07 02:11:48;;;;;;;5.85;2.28;;;;;;;0.12;100.00;98993.06;4993394;28;20137;-74
2021/12/07 02:14:17;;;;;;;8.10;3.07;;;;;;;0.13;100.00;98999.91;4993583;28;20041;-74
2021/12/07 02:16:55;;;;;;;6.07;2.58;;;;;;;0.09;100.00;99006.78;4993487;28;20042;-74
2021/12/07 02:19:21;;;;;;;8.52;3.55;;;;;;;0.13;100.00;99011.06;4993689;28;20101;-74
2021/12/07 02:21:47;;;;;;;;;;;;;;;0.12;100.00;99003.34;4994032;28;20524;-74
2021/12/07 02:24:12;;;;;;;9.82;3.10;;;;;;;0.17;100.00;99005.03;4993510;28;19914;-74
2021/12/07 02:26:38;;;;;;;7.57;3.15;;;;;;;0.24;100.00;99016.13;4993500;28;20080;-75
2021/12/07 02:29:04;;;;;;;9.10;3.95;;;;;;;0.26;100.00;99011.81;4993599;28;20485;-75
2021/12/07 02:31:30;;;;;;;;;;;;;;;0.36;100.00;99017.75;4994030;28;20062;-74
2021/12/07 02:34:01;;;;;;;9.73;3.60;;;;;;;0.49;100.00;99019.34;4993034;28;19979;-75
2021/12/07 02:36:26;;;;;;;11.95;3.72;;;;;;;0.54;100.00;99022.72;4993235;28;20112;-75
2021/12/07 02:38:51;;;;;;;9.52;3.78;;;;;;;0.62;100.00;99020.94;4994799;28;20446;-75
2021/12/07 02:41:17;;;;;;;9.85;4.13;;;;;;;0.66;100.00;99036.34;4996090;28;20520;-75
2021/12/07 02:43:44;;;;;;;10.98;4.72;;;;;;;0.69;100.00;99037.19;4996989;28;20038;-75
2021/12/07 02:46:10;;;;;;;10.05;4.13;;;;;;;0.76;100.00;99051.69;4997247;28;20354;-75
2021/12/07 02:48:35;;;;;;;;;;;;;;;0.78;100.00;99055.13;4997259;28;20480;-75
2021/12/07 02:51:01;;;;;;;9.05;4.50;;;;;;;0.83;100.00;99054.22;4997069;28;19955;-75
2021/12/07 02:53:28;;;;;;;13.00;5.25;;;;;;;0.87;100.00;99052.47;4997111;28;20416;-75
2021/12/07 02:55:56;;;;;;;13.45;4.88;;;;;;;0.92;100.00;99064.44;4996994;28;20370;-76
2021/12/07 02:58:22;;;;;;;11.57;5.45;;;;;;;0.96;100.00;99066.09;4996641;28;20030;-75
2021/12/07 03:00:58;;;;;;;14.45;5.32;;;;;;;0.99;100.00;99063.50;4996911;28;20022;-76
2021/12/07 03:03:24;;;;;;;12.60;5.60;;;;;;;1.06;100.00;99071.19;4996826;28;20049;-75
2021/12/07 03:27:22;;;;;;;11.65;5.70;;;;;;;1.46;100.00;99099.97;4996157;28;20105;-76
2021/12/07 03:29:47;;;;;;;18.33;6.82;;;;;;;1.45;100.00;99109.41;4996163;28;20058;-75
2021/12/07 03:32:13;;;;;;;13.07;5.90;;;;;;;1.45;100.00;99118.88;4996569;28;20038;-75
2021/12/07 03:34:38;;;;;;;14.63;5.78;;;;;;;1.48;100.00;99114.53;4995856;28;20051;-76
2021/12/07 03:37:04;;;;;;;13.35;5.70;;;;;;;1.51;100.00;99129.09;4996283;28;20113;-75
2021/12/07 03:39:29;;;;;;;11.55;5.30;;;;;;;1.48;100.00;99122.28;4996230;28;20393;-75
2021/12/07 03:41:54;;;;;;;14.30;5.38;;;;;;;1.53;100.00;99122.19;4995904;28;20421;-76
2021/12/07 03:44:20;;;;;;;16.52;6.25;;;;;;;1.54;100.00;99124.75;5011124;28;20038;-76
2021/12/07 03:46:45;;;;;;;14.55;5.30;;;;;;;1.60;100.00;99131.56;4995755;28;20473;-75
2021/12/07 03:49:11;;;;;;;12.02;4.50;;;;;;;1.60;100.00;99135.00;4995603;28;20023;-76
2021/12/07 03:51:36;;;;;;;12.25;4.50;;;;;;;1.67;100.00;99133.22;4995685;28;20496;-76
2021/12/07 03:54:03;;;;;;;10.13;4.20;;;;;;;1.71;100.00;99137.47;4995816;28;20034;-76
2021/12/07 03:56:30;;;;;;;11.02;4.45;;;;;;;1.76;100.00;99140.84;4994548;28;20477;-76
2021/12/07 03:58:55;;;;;;;10.65;4.68;;;;;;;1.77;100.00;99147.72;4995612;28;20433;-75
2021/12/07 04:01:23;;;;;;;11.73;4.13;;;;;;;1.86;100.00;99147.59;4994770;28;20069;-76
2021/12/07 04:03:52;;;;;;;12.10;4.18;;;;;;;1.86;100.00;99159.63;4995478;28;20042;-76
2021/12/07 04:06:18;;;;;;;12.23;5.05;;;;;;;1.87;100.00;99159.63;4994574;28;20065;-75
2021/12/07 04:08:45;;;;;;;12.73;4.95;;;;;;;1.91;100.00;99166.44;4995832;28;20444;-75
2021/12/07 04:11:10;;;;;;;;;;;;;;;1.92;100.00;99169.88;4996034;28;20438;-75
2021/12/07 04:13:36;;;;;;;13.73;4.60;;;;;;;1.94;100.00;99173.31;4995552;28;19918;-75
2021/12/07 04:16:01;;;;;;;;;;;;;;;1.98;100.00;99180.13;4995460;28;20509;-75
2021/12/07 04:18:28;;;;;;;9.50;4.88;;;;;;;2.01;100.00;99187.84;4995558;28;19914;-76
2021/12/07 04:20:53;;;;;;;13.30;4.63;;;;;;;2.04;100.00;99190.38;4995488;28;20546;-76
2021/12/07 04:23:19;;;;;;;11.85;5.20;;;;;;;2.13;100.00;99181.69;4995248;28;20453;-76
2021/12/07 04:25:44;;;;;;;13.48;4.53;;;;;;;2.15;100.00;99188.53;4995296;28;20117;-76
2021/12/07 04:28:10;;;;;;;14.90;5.47;;;;;;;2.20;100.00;99196.22;4995220;28;20453;-76
2021/12/07 04:30:40;;;;;;;11.77;5.18;;;;;;;2.25;100.00;99200.44;4995222;28;20038;-76
2021/12/07 04:33:08;;;;;;;14.13;6.10;;;;;;;2.33;100.00;99202.91;4994862;28;20034;-76
2021/12/07 04:35:35;;;;;;;14.30;5.45;;;;;;;2.34;100.00;99195.16;4995146;28;20050;-76
2021/12/07 04:38:00;;;;;;;14.65;5.75;;;;;;;2.38;100.00;99198.56;4993983;28;20034;-77
2021/12/07 04:40:28;;;;;;;16.33;5.75;;;;;;;2.38;100.00;99205.44;4995332;28;20358;-76
2021/12/07 04:42:55;;;;;;;19.58;5.80;;;;;;;2.41;100.00;99210.56;4994775;28;20034;-76
2021/12/07 04:45:38;;;;;;;;;;;;;;;2.40;100.00;99209.72;4995120;28;20031;-75
2021/12/07 04:48:32;;;;;;;17.35;5.75;;;;;;;2.43;100.00;99214.00;4993717;28;19960;-76
2021/12/07 04:59:11;;;;;;;9.82;4.68;;;;;;;2.43;100.00;99220.00;4994355;28;20045;-75
2021/12/07 05:01:36;;;;;;;12.48;5.38;;;;;;;2.40;100.00;99225.22;4993665;28;20034;-75
2021/12/07 05:04:09;;;;;;;22.70;4.38;;;;;;;2.40;100.00;99221.78;4994216;28;20030;-75
2021/12/07 05:06:40;;;;;;;14.27;5.55;;;;;;;2.44;100.00;99219.13;4993042;28;20034;-76
2021/12/07 05:09:23;;;;;;;9.80;4.18;;;;;;;2.42;100.00;99230.38;4994230;28;20041;-75
2021/12/07 05:12:03;;;;;;;7.45;3.35;;;;;;;2.43;100.00;99238.09;4994706;28;20034;-75
2021/12/07 05:14:32;;;;;;;11.60;4.50;;;;;;;2.42;100.00;99240.69;4994420;28;20030;-75
2021/12/07 05:17:19;;;;;;;9.85;3.75;;;;;;;2.49;100.00;99245.75;4956820;28;20061;-76
2021/12/07 05:38:53;;;;;;;12.23;4.05;;;;;;;2.60;100.00;99279.22;4993946;28;20065;-76
2021/12/07 05:41:18;;;;;;;15.60;3.75;;;;;;;2.64;100.00;99281.69;4993851;28;20424;-75
2021/12/07 05:43:45;;;;;;;11.13;3.83;;;;;;;2.65;100.00;99285.16;4992758;28;20053;-76
2021/12/07 05:46:10;;;;;;;11.77;4.30;;;;;;;2.69;100.00;99303.16;4993656;28;20108;-76
2021/12/07 05:48:36;;;;;;;11.00;4.07;;;;;;;2.63;100.00;99305.81;4993930;28;20461;-76
2021/12/07 05:51:02;;;;;;;14.50;5.05;;;;;;;2.69;100.00;99308.34;4992700;28;20542;-76
2021/12/07 05:53:27;;;;;;;10.18;4.22;;;;;;;2.64;100.00;99315.28;4995549;28;20034;-75
2021/12/07 05:55:53;;;;;;;12.57;3.53;;;;;;;2.65;100.00;99316.16;4992722;28;20453;-76
2021/12/07 05:58:19;;;;;;;19.85;5.43;;;;;;;2.64;100.00;99322.19;4993363;28;20038;-76
2021/12/07 06:00:46;;;;;;;11.73;5.30;;;;;;;2.66;100.00;99323.88;4992265;28;20026;-75
2021/12/07 06:03:12;;;;;;;11.25;4.47;;;;;;;2.68;100.00;99335.06;5008530;28;20046;-76
2021/12/07 06:05:40;;;;;;;11.13;4.03;;;;;;;2.69;100.00;99333.31;4993138;28;20109;-76
2021/12/07 06:08:06;;;;;;;13.48;4.75;;;;;;;2.68;100.00;99331.59;4993183;28;20473;-76
2021/12/07 06:10:33;;;;;;;13.73;5.90;;;;;;;2.71;100.00;99343.63;4993485;28;20033;-77
2021/12/07 06:12:58;;;;;;;16.25;4.13;;;;;;;2.68;100.00;99345.38;4994873;28;20481;-76
2021/12/07 06:15:27;;;;;;;10.25;4.47;;;;;;;2.72;100.00;99345.34;4996880;28;20064;-76
2021/12/07 06:17:53;;;;;;;17.58;4.95;;;;;;;2.73;100.00;99354.81;4997363;28;20537;-76
2021/12/07 06:20:20;;;;;;;11.93;3.90;;;;;;;2.74;100.00;99353.94;4997052;28;20062;-76
2021/12/07 06:22:46;;;;;;;10.32;3.72;;;;;;;2.75;100.00;99353.91;4996910;28;20038;-76
2021/12/07 06:25:12;;;;;;;10.80;4.63;;;;;;;2.76;100.00;99355.63;5012270;28;20104;-76
2021/12/07 06:27:47;;;;;;;6.75;3.45;;;;;;;2.76;100.00;99353.03;4995908;28;20038;-76
2021/12/07 06:30:14;;;;;;;11.45;4.10;;;;;;;2.75;100.00;99351.34;4996927;28;20027;-76
2021/12/07 06:32:39;;;;;;;14.85;4.70;;;;;;;2.81;100.00;99356.44;4996870;28;20033;-76
2021/12/07 06:35:07;;;;;;;10.90;4.57;;;;;;;2.78;100.00;99360.78;4996992;28;20034;-76
2021/12/07 06:37:33;;;;;;;10.93;4.65;;;;;;;2.75;100.00;99368.56;4996884;28;20038;-76
2021/12/07 06:39:58;;;;;;;8.40;3.38;;;;;;;2.73;100.00;99380.66;4995687;28;20027;-76
2021/12/07 06:42:24;;;;;;;11.50;3.85;;;;;;;2.74;100.00;99370.28;4996609;28;20100;-76
2021/12/07 06:44:50;;;;;;;11.88;3.90;;;;;;;2.71;100.00;99374.66;4996933;28;20030;-76
2021/12/07 06:47:15;;;;;;;12.80;4.22;;;;;;;2.69;100.00;99366.91;4996724;28;20039;-76
2021/12/07 06:49:40;;;;;;;9.77;4.25;;;;;;;2.69;100.00;99383.25;4997025;28;20038;-76
2021/12/07 06:52:06;;;;;;;10.73;3.45;;;;;;;2.65;100.00;99376.41;4995783;28;20034;-76
2021/12/07 06:54:32;;;;;;;10.23;3.38;;;;;;;2.73;100.00;99389.25;4996612;28;20022;-76
2021/12/07 06:56:57;;;;;;;9.98;3.60;;;;;;;2.78;100.00;99390.06;4996357;28;20043;-76
2021/12/07 06:59:22;;;;;;;8.18;3.28;;;;;;;2.76;100.00;99380.63;4996328;28;20031;-76
2021/12/07 07:01:48;;;;;;;9.65;3.83;;;;;;;2.75;100.00;99400.44;4996365;28;20038;-76
2021/12/07 07:04:14;;;;;;;15.38;5.22;;;;;;;2.73;100.00;99417.69;4996446;28;20121;-77
2021/12/07 07:06:41;;;;;;;12.60;4.05;;;;;;;2.73;100.00;99403.91;4996443;28;20038;-76
2021/12/07 07:09:06;;;;;;;7.57;3.33;;;;;;;2.71;100.00;99397.91;4996744;28;20057;-78
2021/12/07 07:11:32;;;;;;;7.30;3.17;;;;;;;2.66;100.00;99413.44;4996529;28;20460;-76
2021/12/07 07:13:58;;;;;;;9.35;3.65;;;;;;;2.69;100.00;99392.75;4996304;28;20030;-76
2021/12/07 07:16:23;;;;;;;9.55;4.20;;;;;;;2.57;100.00;99398.06;4960666;28;20049;-76
2021/12/07 07:18:49;;;;;;;9.82;4.32;;;;;;;2.59;100.00;99404.06;4995817;28;20023;-76
2021/12/07 07:21:14;;;;;;;10.25;3.67;;;;;;;2.57;100.00;99419.59;4995959;28;20446;-77
2021/12/07 07:23:40;;;;;;;10.00;4.03;;;;;;;2.62;100.00;99412.63;4995968;28;20367;-76
2021/12/07 07:26:06;;;;;;;13.95;4.60;;;;;;;2.63;100.00;99406.59;4995636;28;20097;-77
2021/12/07 07:28:33;;;;;;;;;;;;;;;2.65;100.00;99411.72;4995538;28;20077;-76
2021/12/07 07:30:59;;;;;;;;;;;;;;;2.57;100.00;99411.84;4996510;28;19914;-76
2021/12/07 07:33:25;;;;;;;12.38;3.60;;;;;;;2.59;100.00;99423.03;4995712;28;19917;-76
2021/12/07 07:35:51;;;;;;;12.77;4.13;;;;;;;2.57;100.00;99435.09;4995875;28;20072;-76
2021/12/07 07:38:17;;;;;;;10.00;3.97;;;;;;;2.55;100.00;99428.22;4995188;28;20397;-76
2021/12/07 07:40:45;;;;;;;13.70;4.72;;;;;;;2.49;100.00;99438.63;4995377;28;20030;-76
2021/12/07 07:43:11;;;;;;;11.98;4.85;;;;;;;2.47;100.00;99445.53;4995908;28;20488;-76
2021/12/07 07:45:36;;;;;;;10.90;4.70;;;;;;;2.46;100.00;99438.66;4995855;28;20034;-77
2021/12/07 07:48:02;;;;;;;13.75;5.07;;;;;;;2.45;100.00;99439.50;4995576;28;20034;-76
2021/12/07 07:50:27;;;;;;;11.35;4.97;;;;;;;2.45;100.00;99444.69;4994638;28;20440;-77
2021/12/07 07:52:53;;;;;;;16.98;4.75;;;;;;;2.43;100.00;99444.69;4995915;28;20057;-76
2021/12/07 07:55:18;;;;;;;10.80;4.50;;;;;;;2.46;100.00;99441.22;4995527;28;20038;-77
2021/12/07 07:57:44;;;;;;;15.27;4.68;;;;;;;2.41;100.00;99438.69;4995263;28;20064;-77
2021/12/07 08:00:15;;;;;;;9.82;4.28;;;;;;;2.47;100.00;99441.22;4995275;28;20038;-76
2021/12/07 08:02:41;;;;;;;17.33;4.43;;;;;;;2.36;100.00;99445.63;4995245;28;20035;-76
2021/12/07 08:05:07;;;;;;;7.93;3.63;;;;;;;2.37;100.00;99443.91;4993806;28;20101;-77
2021/12/07 08:07:32;;;;;;;15.52;4.00;;;;;;;2.43;100.00;99442.13;4995405;28;20038;-76
2021/12/07 08:09:58;;;;;;;13.32;4.47;;;;;;;2.43;100.00;99444.69;4994956;28;20037;-76
2021/12/07 08:12:23;;;;;;;13.53;5.07;;;;;;;2.39;100.00;99447.31;4993682;28;20105;-76
2021/12/07 08:14:48;;;;;;;12.87;4.53;;;;;;;2.39;100.00;99449.91;4994959;28;20285;-76
2021/12/07 08:17:14;;;;;;;17.27;5.45;;;;;;;2.41;100.00;99454.19;4995257;28;20397;-76
2021/12/07 08:19:40;;;;;;;15.57;5.22;;;;;;;2.37;100.00;99456.81;4994884;28;20037;-76
2021/12/07 08:22:05;;;;;;;12.40;5.03;;;;;;;2.36;100.00;99453.38;4995269;28;20038;-76
2021/12/07 08:24:31;;;;;;;9.50;4.45;;;;;;;2.43;100.00;99452.44;4994767;28;20062;-77
2021/12/07 08:26:56;;;;;;;14.73;4.82;;;;;;;2.49;100.00;99447.22;4994652;28;20503;-76
2021/12/07 08:29:22;;;;;;;15.77;5.90;;;;;;;2.43;100.00;99452.44;4994761;28;20035;-76
2021/12/07 08:31:47;;;;;;;12.23;4.70;;;;;;;2.45;100.00;99444.69;4994576;28;20187;-76
2021/12/07 08:34:13;;;;;;;13.18;4.80;;;;;;;2.42;100.00;99448.16;4994675;28;20062;-75
2021/12/07 08:36:38;;;;;;;12.60;4.28;;;;;;;2.42;100.00;99442.97;4993404;28;20038;-76
2021/12/07 08:39:06;;;;;;;18.40;4.75;;;;;;;2.45;100.00;99442.09;4993643;28;20128;-75
2021/12/07 08:41:31;;;;;;;10.90;3.88;;;;;;;2.42;100.00;99431.78;4994963;28;20037;-77
2021/12/07 08:43:57;;;;;;;14.70;4.33;;;;;;;2.46;100.00;99436.91;4994409;28;20369;-76
2021/12/07 08:46:22;;;;;;;9.20;3.83;;;;;;;2.50;100.00;99428.28;4994916;28;20322;-74
2021/12/07 08:48:48;;;;;;;8.63;3.03;;;;;;;2.53;100.00;99423.06;4993360;28;20070;-76
2021/12/07 08:51:15;;;;;;;13.25;4.10;;;;;;;2.55;100.00;99421.34;4994358;28;20113;-76
2021/12/07 08:53:57;;;;;;;16.52;3.67;;;;;;;2.51;100.00;99411.91;5009341;28;20540;-76
2021/12/07 09:01:51;;;;;;;8.20;2.60;;;;;;;2.63;100.00;99432.41;4994528;28;20464;-76
2021/12/07 09:04:19;;;;;;;10.38;3.10;;;;;;;2.65;100.00;99422.94;4994079;28;20037;-76
2021/12/07 09:06:45;;;;;;;7.63;3.35;;;;;;;2.62;100.00;99430.72;4994409;28;20038;-76
2021/12/07 09:09:11;;;;;;;;;;;;;;;2.63;100.00;99426.41;4994451;28;20031;-76
2021/12/07 09:11:36;;;;;;;10.30;2.55;;;;;;;2.61;100.00;99430.72;4994226;28;19928;-76
2021/12/07 09:14:01;;;;;;;9.47;3.83;;;;;;;2.65;100.00;99443.59;4992829;28;20036;-76
2021/12/07 09:16:27;;;;;;;9.05;3.45;;;;;;;2.63;100.00;99444.47;4953350;28;20042;-76
2021/12/07 09:18:52;;;;;;;6.20;2.47;;;;;;;2.68;100.00;99451.31;4993856;28;20037;-76
2021/12/07 09:21:19;;;;;;;7.10;2.58;;;;;;;2.67;100.00;99461.66;4993645;28;20092;-76
2021/12/07 09:23:44;;;;;;;7.55;2.45;;;;;;;2.66;100.00;99458.22;4992366;28;20026;-76
2021/12/07 09:26:10;;;;;;;8.27;2.42;;;;;;;2.72;100.00;99462.47;4993870;28;20113;-76
2021/12/07 09:28:37;;;;;;;7.60;2.63;;;;;;;2.79;100.00;99466.72;4994121;28;20484;-76
2021/12/07 09:31:04;;;;;;;6.80;2.50;;;;;;;2.77;100.00;99463.28;4993447;28;20084;-75
2021/12/07 09:33:30;;;;;;;8.30;3.10;;;;;;;2.78;100.00;99471.91;4993498;28;20062;-75
2021/12/07 09:35:56;;;;;;;6.78;3.55;;;;;;;2.85;100.00;99469.22;5008674;28;20070;-75
2021/12/07 09:38:23;;;;;;;9.23;2.42;;;;;;;2.88;100.00;99465.75;4993387;28;20038;-75
2021/12/07 09:40:49;;;;;;;8.45;2.40;;;;;;;2.94;100.00;99476.91;4993369;28;20461;-75
2021/12/07 09:43:15;;;;;;;6.43;3.45;;;;;;;2.92;100.00;99465.72;4993482;28;20026;-75
2021/12/07 09:45:43;;;;;;;7.32;2.50;;;;;;;2.98;100.00;99475.97;4993848;28;20053;-76
2021/12/07 09:48:10;;;;;;;7.50;2.35;;;;;;;3.00;100.00;99468.19;4993179;28;20065;-76
2021/12/07 09:50:38;;;;;;;9.35;2.20;;;;;;;3.02;100.00;99474.19;4993469;28;20473;-75
2021/12/07 09:53:07;;;;;;;11.00;3.05;;;;;;;2.99;100.00;99469.91;5009320;28;20390;-75
2021/12/07 09:55:34;;;;;;;5.97;2.63;;;;;;;2.98;100.00;99482.84;4994166;28;20031;-75
2021/12/07 09:58:00;;;;;;;7.50;1.83;;;;;;;2.99;100.00;99476.81;4994099;28;20030;-76
2021/12/07 10:00:26;;;;;;;10.38;2.95;;;;;;;3.00;100.00;99479.38;4994306;28;20041;-76
2021/12/07 10:02:53;;;;;;;7.00;2.13;;;;;;;3.08;100.00;99484.47;4993586;28;20038;-75
2021/12/07 10:05:19;;;;;;;8.63;2.72;;;;;;;3.08;100.00;99481.88;4993720;28;20442;-75
2021/12/07 10:07:47;;;;;;;5.38;1.50;;;;;;;2.99;100.00;99480.25;4993552;28;20034;-76
2021/12/07 10:10:26;;;;;;;5.55;2.00;;;;;;;3.01;100.00;99468.16;4993722;28;20456;-75
2021/12/07 10:12:51;;;;;;;7.70;2.25;;;;;;;3.02;100.00;99475.06;4993632;28;20472;-75
2021/12/07 10:15:17;;;;;;;6.60;2.13;;;;;;;3.10;100.00;99476.69;4992855;28;20117;-76
2021/12/07 10:17:57;;;;;;;10.05;2.92;;;;;;;3.10;100.00;99458.59;4993712;28;20066;-75
2021/12/07 10:20:38;;;;;;;7.80;1.73;;;;;;;3.09;100.00;99465.50;4992258;28;20061;-75
2021/12/07 10:23:21;;;;;;;5.22;2.08;;;;;;;3.24;100.00;99460.16;4993383;28;20030;-75
2021/12/07 10:25:55;;;;;;;10.35;2.33;;;;;;;3.31;100.00;99460.94;4995550;28;20421;-75
2021/12/07 10:28:32;;;;;;;12.27;2.70;;;;;;;3.36;100.00;99459.13;5008631;28;20484;-75
2021/12/07 10:31:18;;;;;;;5.25;2.20;;;;;;;3.43;100.00;99462.47;4993350;28;20033;-76
2021/12/07 10:33:59;;;;;;;9.68;2.13;;;;;;;3.44;100.00;99452.13;4982481;28;20046;-76
2021/12/07 10:36:46;;;;;;;4.65;1.70;;;;;;;3.44;100.00;99452.13;4993311;28;20030;-75
2021/12/07 10:39:23;;;;;;;14.05;2.92;;;;;;;3.42;100.00;99456.44;4992134;28;20041;-75
2021/12/07 10:42:01;;;;;;;10.80;2.95;;;;;;;3.51;100.00;99455.47;4993669;28;20042;-75
2021/12/07 10:44:30;;;;;;;5.88;2.50;;;;;;;3.54;100.00;99455.44;4993508;28;20038;-76
2021/12/07 10:47:23;;;;;;;7.43;2.08;;;;;;;3.56;100.00;99453.69;4993001;28;20041;-76
2021/12/07 10:49:50;;;;;;;4.80;2.08;;;;;;;3.61;100.00;99436.38;4990196;28;20046;-75
2021/12/07 10:52:18;;;;;;;9.68;3.75;;;;;;;3.52;100.00;99432.19;4991830;28;20041;-75
2021/12/07 10:54:47;;;;;;;8.38;2.08;;;;;;;3.53;100.00;99427.84;4993113;28;20070;-75
2021/12/07 10:57:20;;;;;;;15.45;3.75;;;;;;;3.63;100.00;99429.44;4991757;28;20030;-75
2021/12/07 11:00:07;;;;;;;4.95;1.80;;;;;;;3.65;100.00;99419.94;4994753;28;20109;-75
2021/12/07 11:02:36;;;;;;;9.70;2.33;;;;;;;3.63;100.00;99419.94;4996990;28;20030;-75
2021/12/07 11:05:07;;;;;;;13.18;2.35;;;;;;;3.60;100.00;99414.81;4996859;28;20040;-75
2021/12/07 11:07:32;;;;;;;6.82;2.28;;;;;;;3.72;100.00;99407.72;4996593;28;20034;-76
2021/12/07 11:10:19;;;;;;;5.40;2.30;;;;;;;3.80;100.00;99404.16;4996175;28;20049;-76
2021/12/07 11:13:05;;;;;;;7.45;2.08;;;;;;;3.86;100.00;99411.81;4996220;28;20536;-76
2021/12/07 11:15:32;;;;;;;8.32;2.13;;;;;;;4.01;100.00;99401.22;4961357;28;20045;-75
2021/12/07 11:18:07;;;;;;;6.63;2.00;;;;;;;4.12;100.00;99403.59;4997500;28;20366;-76
2021/12/07 11:20:34;;;;;;;9.85;2.20;;;;;;;4.19;100.00;99400.03;4996633;28;20027;-76
2021/12/07 11:23:13;;;;;;;4.00;1.77;;;;;;;4.22;100.00;99392.22;4996569;28;20492;-75
2021/12/07 11:31:15;;;;;;;5.93;2.25;;;;;;;4.32;100.00;99385.16;4995777;28;20049;-77
2021/12/07 11:33:40;;;;;;;5.88;1.60;;;;;;;4.46;100.00;99380.53;4995950;28;20397;-76
2021/12/07 11:36:28;;;;;;;4.78;1.60;;;;;;;4.43;100.00;99378.03;4994974;28;20038;-77
2021/12/07 11:38:56;;;;;;;5.38;1.90;;;;;;;4.39;100.00;99375.53;4996205;28;20034;-75
2021/12/07 11:41:32;;;;;;;8.88;2.17;;;;;;;4.38;100.00;99366.91;4995928;28;20052;-75
2021/12/07 11:44:02;;;;;;;6.22;1.80;;;;;;;4.45;100.00;99371.09;4995761;28;20112;-75
2021/12/07 11:46:30;;;;;;;8.23;2.60;;;;;;;4.44;100.00;99369.38;4995716;28;20030;-75
2021/12/07 11:49:13;;;;;;;6.65;2.15;;;;;;;4.48;100.00;99365.81;4995490;28;20056;-75
2021/12/07 11:51:42;;;;;;;4.40;1.92;;;;;;;4.64;100.00;99358.63;4995571;28;20034;-75
2021/12/07 11:54:08;;;;;;;10.60;2.47;;;;;;;4.53;100.00;99353.63;4995949;28;20030;-75
2021/12/07 11:56:34;;;;;;;;;;;;;;;4.53;100.00;99351.03;4996152;28;20172;-76
2021/12/07 11:59:00;;;;;;;7.55;2.05;;;;;;;4.40;100.00;99354.78;4995731;28;20367;-75
2021/12/07 12:01:26;;;;;;;10.30;2.75;;;;;;;4.47;100.00;99343.38;4995658;28;20026;-75
2021/12/07 12:03:51;;;;;;;5.47;1.70;;;;;;;4.49;100.00;99343.34;4995610;28;20041;-75
2021/12/07 12:06:17;;;;;;;3.95;2.03;;;;;;;4.56;100.00;99342.34;4995693;28;20041;-76
2021/12/07 12:08:43;;;;;;;9.68;2.90;;;;;;;4.63;100.00;99341.34;4995588;28;20521;-75
2021/12/07 12:11:40;;;;;;;7.53;2.15;;;;;;;4.66;100.00;99344.75;4994856;28;20041;-75
2021/12/07 12:14:21;;;;;;;9.25;2.65;;;;;;;4.78;100.00;99350.56;4986999;28;20456;-74
2021/12/07 12:17:08;;;;;;;7.68;1.85;;;;;;;4.84;100.00;99355.59;4995165;28;20064;-78
2021/12/07 12:20:10;;;;;;;5.45;1.90;;;;;;;4.91;100.00;99346.81;4995498;28;20066;-75
2021/12/07 12:22:45;;;;;;;5.75;1.55;;;;;;;5.19;100.00;99347.94;4995560;28;20034;-74
2021/12/07 12:25:16;;;;;;;13.88;1.90;;;;;;;5.24;100.00;99343.50;5009984;28;20477;-76
2021/12/07 12:27:43;;;;;;;2.95;1.17;;;;;;;5.29;100.00;99338.19;4994625;28;20081;-74
2021/12/07 12:30:29;;;;;;;4.30;1.55;;;;;;;5.33;100.00;99332.06;4994709;28;20038;-75
2021/12/07 12:32:58;;;;;;;6.05;1.75;;;;;;;5.34;100.00;99344.13;4995708;28;20037;-76
2021/12/07 12:35:40;;;;;;;6.68;2.03;;;;;;;5.30;100.00;99332.13;4995367;28;20125;-76
2021/12/07 12:38:19;;;;;;;5.90;1.92;;;;;;;5.20;100.00;99330.66;4995202;28;20038;-74
2021/12/07 12:40:54;;;;;;;4.85;1.67;;;;;;;5.20;100.00;99333.25;4994834;28;20034;-76
2021/12/07 12:43:38;;;;;;;13.02;1.58;;;;;;;5.12;100.00;99332.56;4994598;28;20037;-74
2021/12/07 12:46:04;;;;;;;3.55;1.40;;;;;;;4.94;100.00;99324.28;4993843;28;20035;-75
2021/12/07 12:48:30;;;;;;;5.82;2.13;;;;;;;4.90;100.00;99325.22;4994857;28;20034;-75
2021/12/07 12:50:56;;;;;;;5.65;1.70;;;;;;;5.01;100.00;99317.22;4994593;28;20053;-75
2021/12/07 12:53:21;;;;;;;;;;;;;;;4.99;100.00;99313.81;5009901;28;20389;-75
2021/12/07 12:55:57;;;;;;;4.20;1.63;;;;;;;5.00;100.00;99313.78;4994717;28;19924;-72
2021/12/07 12:58:29;;;;;;;6.65;1.50;;;;;;;5.04;100.00;99306.78;4994563;28;20039;-75
2021/12/07 13:00:57;;;;;;;4.45;1.33;;;;;;;5.05;100.00;99305.91;4994745;28;20035;-72
2021/12/07 13:03:22;;;;;;;4.30;1.30;;;;;;;5.15;100.00;99301.38;4994604;28;20030;-73
2021/12/07 13:06:00;;;;;;;3.38;1.52;;;;;;;5.08;100.00;99295.47;5009565;28;20117;-75
2021/12/07 13:08:26;;;;;;;6.70;1.23;;;;;;;5.06;100.00;99294.63;4993411;28;20521;-75
2021/12/07 13:10:55;;;;;;;;;;;;;;;5.09;100.00;99291.97;4995555;28;20030;-76
2021/12/07 13:13:35;;;;;;;7.60;1.75;;;;;;;5.09;100.00;99296.31;4994229;28;20025;-76
2021/12/07 13:16:15;;;;;;;3.92;1.48;;;;;;;5.06;100.00;99281.66;4954867;28;20046;-75
2021/12/07 13:18:41;;;;;;;6.95;2.08;;;;;;;5.04;100.00;99275.66;4994692;28;20037;-74
2021/12/07 13:21:38;;;;;;;4.80;2.33;;;;;;;5.06;100.00;99273.88;4994207;28;20034;-75
2021/12/07 13:24:07;;;;;;;7.13;1.73;;;;;;;5.13;100.00;99275.47;4981643;28;20038;-75